createdAt,value
2022-11-18T00:01:30.927Z,95157.22
2022-11-18T00:03:57.331Z,95147.59
2022-11-18T00:06:26.041Z,95142.13
2022-11-18T00:08:53.032Z,95140.34
2022-11-18T00:11:39.230Z,95129.06
2022-11-18T00:14:32.592Z,95135.91
2022-11-18T00:17:01.379Z,95136.91
2022-11-18T00:19:35.208Z,95129.66
2022-11-18T00:22:02.016Z,95130.06
2022-11-18T00:24:28.591Z,95125.25
2022-11-18T00:26:55.121Z,95124.03
2022-11-18T00:29:22.288Z,95103.72
2022-11-18T00:31:48.834Z,95117.38
2022-11-18T00:34:16.497Z,95104.09
2022-11-18T00:36:43.567Z,95109.94
2022-11-18T00:39:13.958Z,95113.13
2022-11-18T00:41:59.169Z,95116.94
2022-11-18T00:44:25.589Z,95113.13
2022-11-18T00:46:51.933Z,95119.59
2022-11-18T00:49:18.582Z,95122.41
2022-11-18T00:51:45.037Z,95120.38
2022-11-18T00:54:12.386Z,95117.38
2022-11-18T00:56:38.864Z,95112.16
2022-11-18T00:59:05.293Z,95110.75
2022-11-18T01:01:32.169Z,95110.94
2022-11-18T01:03:58.705Z,95110.75
2022-11-18T01:06:25.091Z,95114.75
2022-11-18T01:08:52.413Z,95119.41
2022-11-18T01:11:37.294Z,95119.00
2022-11-18T01:14:03.727Z,95122.22
2022-11-18T01:16:30.803Z,95108.53
2022-11-18T01:18:57.317Z,95114.38
2022-11-18T01:21:24.656Z,95114.94
2022-11-18T01:23:51.070Z,95113.38
2022-11-18T01:26:18.076Z,95111.78
2022-11-18T01:28:45.044Z,95108.72
2022-11-18T01:31:20.236Z,95115.97
2022-11-18T01:33:47.176Z,95119.00
2022-11-18T01:36:14.748Z,95106.34
2022-11-18T01:38:41.069Z,95105.72
2022-11-18T01:41:07.401Z,95106.13
2022-11-18T01:43:47.982Z,95112.78
2022-11-18T01:46:14.293Z,95102.91
2022-11-18T01:48:42.038Z,95102.09
2022-11-18T01:51:13.920Z,95093.47
2022-11-18T01:53:46.283Z,95094.44
2022-11-18T01:56:16.108Z,95088.03
2022-11-18T01:58:45.723Z,95083.59
2022-11-18T02:01:12.232Z,95089.00
2022-11-18T02:03:38.830Z,95091.63
2022-11-18T02:06:05.286Z,95096.84
2022-11-18T02:08:32.716Z,95103.72
2022-11-18T02:11:01.256Z,95105.72
2022-11-18T02:13:27.618Z,95095.44
2022-11-18T02:16:13.592Z,95102.28
2022-11-18T02:18:58.218Z,95103.69
2022-11-18T02:21:46.773Z,95101.28
2022-11-18T02:24:31.915Z,95101.50
2022-11-18T02:27:17.089Z,95101.69
2022-11-18T02:29:43.424Z,95106.31
2022-11-18T02:32:23.460Z,95110.53
2022-11-18T02:35:04.012Z,95112.31
2022-11-18T02:37:39.469Z,95119.34
2022-11-18T02:40:20.040Z,95117.34
2022-11-18T02:42:50.438Z,95123.78
2022-11-18T02:45:17.540Z,95120.59
2022-11-18T02:47:46.112Z,95121.78
2022-11-18T02:50:14.987Z,95122.78
2022-11-18T02:52:42.549Z,95122.56
2022-11-18T02:55:10.799Z,95123.19
2022-11-18T02:57:38.337Z,95121.00
2022-11-18T03:00:05.103Z,95121.59
2022-11-18T03:02:45.035Z,95115.91
2022-11-18T03:05:18.968Z,95111.53
2022-11-18T03:07:48.099Z,95114.56
2022-11-18T03:10:14.560Z,95121.59
2022-11-18T03:12:48.590Z,95119.59
2022-11-18T03:15:14.888Z,95114.16
2022-11-18T03:17:45.704Z,95114.16
2022-11-18T03:20:24.202Z,95114.38
2022-11-18T03:22:50.526Z,95110.94
2022-11-18T03:25:34.710Z,95116.56
2022-11-18T03:28:04.061Z,95110.72
2022-11-18T03:30:31.315Z,95110.94
2022-11-18T03:33:06.022Z,95110.56
2022-11-18T03:35:35.554Z,95110.75
2022-11-18T03:38:04.975Z,95111.16
2022-11-18T03:40:32.533Z,95112.78
2022-11-18T03:43:13.798Z,95110.56
2022-11-18T03:45:40.134Z,95108.53
2022-11-18T03:48:15.594Z,95102.50
2022-11-18T03:50:48.077Z,95108.97
2022-11-18T03:53:16.215Z,95117.19
2022-11-18T03:55:45.874Z,95114.59
2022-11-18T03:58:12.172Z,95117.19
2022-11-18T04:00:40.841Z,95123.00
2022-11-18T04:03:07.228Z,95124.78
2022-11-18T04:05:36.245Z,95130.19
2022-11-18T04:08:04.938Z,95130.44
2022-11-18T04:10:40.246Z,95123.41
2022-11-18T04:13:09.202Z,95137.50
2022-11-18T04:15:40.507Z,95139.91
2022-11-18T04:18:07.541Z,95142.53
2022-11-18T04:20:34.184Z,95136.41
2022-11-18T04:23:01.144Z,95143.50
2022-11-18T04:25:27.571Z,95153.69
2022-11-18T04:27:53.951Z,95155.34
2022-11-18T04:30:20.342Z,95162.41
2022-11-18T04:32:46.842Z,95160.97
2022-11-18T04:35:15.536Z,95166.41
2022-11-18T04:37:42.315Z,95163.59
2022-11-18T04:40:09.115Z,95168.44
2022-11-18T04:42:35.450Z,95156.41
2022-11-18T04:45:01.774Z,95154.81
2022-11-18T04:47:28.143Z,95148.97
2022-11-18T04:49:54.453Z,95144.94
2022-11-18T04:52:20.800Z,95146.16
2022-11-18T04:54:47.133Z,95141.13
2022-11-18T04:57:13.551Z,95148.78
2022-11-18T04:59:40.000Z,95147.97
2022-11-18T05:02:06.405Z,95154.97
2022-11-18T05:04:33.980Z,95156.63
2022-11-18T05:07:02.579Z,95144.34
2022-11-18T05:09:32.098Z,95148.78
2022-11-18T05:12:18.890Z,95147.75
2022-11-18T05:14:49.675Z,95152.59
2022-11-18T05:17:16.717Z,95150.38
2022-11-18T05:19:43.165Z,95158.94
2022-11-18T05:22:09.617Z,95151.88
2022-11-18T05:24:36.032Z,95151.31
2022-11-18T05:27:02.446Z,95152.34
2022-11-18T05:29:28.810Z,95158.75
2022-11-18T05:31:55.185Z,95160.38
2022-11-18T05:34:21.814Z,95159.78
2022-11-18T05:36:48.236Z,95154.38
2022-11-18T05:39:14.735Z,95162.78
2022-11-18T05:41:59.775Z,95157.97
2022-11-18T05:44:26.092Z,95161.41
2022-11-18T05:46:52.435Z,95160.97
2022-11-18T05:49:19.099Z,95166.41
2022-11-18T05:51:45.710Z,95161.53
2022-11-18T05:54:14.264Z,95159.78
2022-11-18T05:56:42.080Z,95166.44
2022-11-18T05:59:08.486Z,95164.88
2022-11-18T06:01:38.027Z,95172.91
2022-11-18T06:04:08.903Z,95173.28
2022-11-18T06:06:36.358Z,95173.88
2022-11-18T06:09:04.447Z,95174.50
2022-11-18T06:11:33.750Z,95177.13
2022-11-18T06:14:02.904Z,95178.34
2022-11-18T06:16:37.874Z,95172.50
2022-11-18T06:19:07.174Z,95174.69
2022-11-18T06:21:34.861Z,95169.25
2022-11-18T06:24:02.483Z,95179.13
2022-11-18T06:26:28.927Z,95182.53
2022-11-18T06:28:55.911Z,95181.34
2022-11-18T06:31:23.347Z,95179.75
2022-11-18T06:33:49.978Z,95173.50
2022-11-18T06:36:16.297Z,95179.56
2022-11-18T06:38:42.661Z,95180.75
2022-11-18T06:41:09.014Z,95179.78
2022-11-18T06:43:41.781Z,95183.41
2022-11-18T06:46:30.203Z,95175.31
2022-11-18T06:48:57.020Z,95187.00
2022-11-18T06:51:23.540Z,95182.16
2022-11-18T06:53:50.363Z,95188.63
2022-11-18T06:56:18.764Z,95195.84
2022-11-18T06:58:46.233Z,95198.84
2022-11-18T07:01:12.685Z,95200.69
2022-11-18T07:03:43.117Z,95203.47
2022-11-18T07:06:09.801Z,95214.16
2022-11-18T07:08:38.348Z,95216.56
2022-11-18T07:11:05.808Z,95213.34
2022-11-18T07:13:32.737Z,95211.38
2022-11-18T07:16:13.127Z,95208.75
2022-11-18T07:18:41.527Z,95215.56
2022-11-18T07:21:09.143Z,95218.81
2022-11-18T07:23:36.168Z,95213.16
2022-11-18T07:26:09.007Z,95212.59
2022-11-18T07:28:35.320Z,95211.72
2022-11-18T07:31:03.448Z,95224.44
2022-11-18T07:33:30.933Z,95227.22
2022-11-18T07:36:00.295Z,95227.44
2022-11-18T07:38:27.796Z,95235.44
2022-11-18T07:40:54.163Z,95232.84
2022-11-18T07:43:20.495Z,95227.63
2022-11-18T07:45:46.818Z,95236.13
2022-11-18T07:48:13.134Z,95229.88
2022-11-18T07:50:43.027Z,95233.50
2022-11-18T07:53:12.438Z,95231.09
2022-11-18T07:55:38.778Z,95231.28
2022-11-18T07:58:05.194Z,95235.34
2022-11-18T08:00:31.758Z,95232.53
2022-11-18T08:02:59.233Z,95239.56
2022-11-18T08:05:27.721Z,95241.78
2022-11-18T08:07:54.340Z,95244.78
2022-11-18T08:10:20.661Z,95241.75
2022-11-18T08:12:47.094Z,95245.34
2022-11-18T08:15:13.459Z,95249.81
2022-11-18T08:17:39.824Z,95251.44
2022-11-18T08:20:07.311Z,95255.09
2022-11-18T08:22:33.677Z,95248.25
2022-11-18T08:25:01.201Z,95249.44
2022-11-18T08:27:27.517Z,95251.91
2022-11-18T08:29:53.868Z,95253.81
2022-11-18T08:32:20.211Z,95263.16
2022-11-18T08:34:46.530Z,95255.09
2022-11-18T08:37:12.917Z,95264.09
2022-11-18T08:39:39.389Z,95261.56
2022-11-18T08:42:05.776Z,95265.19
2022-11-18T08:44:34.481Z,95266.72
2022-11-18T08:47:00.960Z,95269.22
2022-11-18T08:49:32.256Z,95264.00
2022-11-18T08:52:01.059Z,95267.38
2022-11-18T08:54:27.503Z,95263.59
2022-11-18T08:56:53.875Z,95265.22
2022-11-18T08:59:20.642Z,95267.63
2022-11-18T09:01:47.139Z,95270.44
2022-11-18T09:04:13.506Z,95271.22
2022-11-18T09:06:41.020Z,95275.06
2022-11-18T09:09:08.517Z,95269.63
2022-11-18T09:11:35.300Z,95268.84
2022-11-18T09:16:53.295Z,95267.03
2022-11-18T09:22:06.439Z,95274.50
2022-11-18T09:24:34.021Z,95278.28
2022-11-18T09:27:05.079Z,95284.66
2022-11-18T09:29:32.022Z,95287.66
2022-11-18T09:32:01.760Z,95289.34
2022-11-18T09:34:30.195Z,95294.97
2022-11-18T09:36:56.716Z,95290.00
2022-11-18T09:39:24.111Z,95286.16
2022-11-18T09:42:06.268Z,95287.38
2022-11-18T09:44:39.236Z,95292.41
2022-11-18T09:47:21.745Z,95296.84
2022-11-18T09:49:48.620Z,95303.50
2022-11-18T09:52:17.976Z,95291.63
2022-11-18T09:54:44.450Z,95298.28
2022-11-18T09:57:16.387Z,95296.66
2022-11-18T09:59:43.309Z,95301.88
2022-11-18T10:02:26.753Z,95304.72
2022-11-18T10:04:54.750Z,95308.16
2022-11-18T10:07:26.081Z,95305.13
2022-11-18T10:09:54.494Z,95304.50
2022-11-18T10:12:26.370Z,95305.13
2022-11-18T10:15:08.093Z,95304.50
2022-11-18T10:18:08.828Z,95302.91
2022-11-18T10:20:48.121Z,95301.50
2022-11-18T10:23:21.147Z,95305.31
2022-11-18T10:25:47.517Z,95304.50
2022-11-18T10:28:16.109Z,95311.38
2022-11-18T10:30:46.460Z,95308.75
2022-11-18T10:33:19.714Z,95306.91
2022-11-18T10:35:47.559Z,95308.56
2022-11-18T10:38:21.002Z,95315.22
2022-11-18T10:40:51.200Z,95311.75
2022-11-18T10:43:37.478Z,95314.56
2022-11-18T10:46:15.644Z,95306.72
2022-11-18T10:48:42.130Z,95315.22
2022-11-18T10:51:29.873Z,95320.03
2022-11-18T10:54:07.197Z,95317.41
2022-11-18T10:56:44.478Z,95314.19
2022-11-18T10:59:18.503Z,95314.78
2022-11-18T11:01:56.634Z,95311.16
2022-11-18T11:04:25.390Z,95315.19
2022-11-18T11:06:52.218Z,95314.97
2022-11-18T11:09:29.584Z,95311.94
2022-11-18T11:12:15.811Z,95317.16
2022-11-18T11:14:51.539Z,95317.59
2022-11-18T11:17:33.346Z,95324.22
2022-11-18T11:20:21.589Z,95321.97
2022-11-18T11:22:49.100Z,95322.00
2022-11-18T11:25:18.240Z,95332.81
2022-11-18T11:30:47.233Z,95326.44
2022-11-18T11:33:27.283Z,95334.50
2022-11-18T11:35:53.800Z,95325.19
2022-11-18T11:38:35.851Z,95323.44
2022-11-18T11:41:04.966Z,95335.28
2022-11-18T11:43:35.058Z,95332.72
2022-11-18T11:46:13.789Z,95334.53
2022-11-18T11:48:40.082Z,95340.44
2022-11-18T11:51:26.697Z,95338.25
2022-11-18T11:53:55.808Z,95343.31
2022-11-18T11:56:34.152Z,95344.69
2022-11-18T11:59:14.521Z,95348.94
2022-11-18T12:01:43.996Z,95353.97
2022-11-18T12:04:29.780Z,95354.34
2022-11-18T12:07:00.121Z,95352.13
2022-11-18T12:09:33.536Z,95358.03
2022-11-18T12:12:31.720Z,95354.63
2022-11-18T12:15:06.097Z,95362.22
2022-11-18T12:17:37.196Z,95358.59
2022-11-18T12:20:23.827Z,95362.06
2022-11-18T12:23:08.721Z,95360.22
2022-11-18T12:25:44.192Z,95362.47
2022-11-18T12:28:11.617Z,95366.25
2022-11-18T12:30:37.934Z,95367.69
2022-11-18T12:33:04.390Z,95364.69
2022-11-18T12:35:31.283Z,95369.09
2022-11-18T12:37:58.811Z,95362.25
2022-11-18T12:40:36.568Z,95372.91
2022-11-18T12:43:24.468Z,95373.50
2022-11-18T12:45:52.708Z,95374.31
2022-11-18T12:48:38.779Z,95370.88
2022-11-18T12:51:31.003Z,95373.34
2022-11-18T12:53:57.551Z,95375.16
2022-11-18T12:56:26.244Z,95374.72
2022-11-18T12:58:54.227Z,95373.78
2022-11-18T13:01:24.541Z,95372.88
2022-11-18T13:03:51.725Z,95368.63
2022-11-18T13:06:23.237Z,95372.94
2022-11-18T13:08:51.218Z,95376.84
2022-11-18T13:11:37.132Z,95370.13
2022-11-18T13:14:23.822Z,95374.97
2022-11-18T13:17:08.916Z,95369.22
2022-11-18T13:19:35.611Z,95375.38
2022-11-18T13:22:21.699Z,95378.78
2022-11-18T13:24:52.295Z,95379.00
2022-11-18T13:27:25.203Z,95376.81
2022-11-18T13:29:55.668Z,95379.53
2022-11-18T13:32:28.940Z,95379.59
2022-11-18T13:34:56.686Z,95381.63
2022-11-18T13:37:30.261Z,95375.97
2022-11-18T13:39:56.697Z,95382.03
2022-11-18T13:42:24.271Z,95388.84
2022-11-18T13:44:55.132Z,95378.75
2022-11-18T13:47:40.456Z,95384.66
2022-11-18T13:50:25.347Z,95382.81
2022-11-18T13:53:10.654Z,95374.78
2022-11-18T13:55:40.241Z,95384.88
2022-11-18T13:58:18.809Z,95388.03
2022-11-18T14:00:55.914Z,95387.19
2022-11-18T14:03:46.117Z,95396.41
2022-11-18T14:06:23.491Z,95396.81
2022-11-18T14:08:50.500Z,95391.25
2022-11-18T14:11:34.139Z,95397.53
2022-11-18T14:14:00.771Z,95397.31
2022-11-18T14:16:31.940Z,95392.88
2022-11-18T14:18:58.434Z,95398.50
2022-11-18T14:21:42.688Z,95398.50
2022-11-18T14:24:14.523Z,95408.09
2022-11-18T14:26:41.235Z,95408.09
2022-11-18T14:29:22.858Z,95409.69
2022-11-18T14:32:07.915Z,95414.38
2022-11-18T14:34:34.339Z,95415.06
2022-11-18T14:37:00.695Z,95423.78
2022-11-18T14:39:28.480Z,95422.09
2022-11-18T14:41:55.431Z,95424.09
2022-11-18T14:44:22.712Z,95422.91
2022-11-18T14:46:57.860Z,95422.09
2022-11-18T14:49:25.732Z,95419.63
2022-11-18T14:51:53.027Z,95418.81
2022-11-18T14:54:25.924Z,95423.59
2022-11-18T14:56:54.300Z,95428.44
2022-11-18T14:59:21.144Z,95428.03
2022-11-18T15:01:47.950Z,95439.13
2022-11-18T15:04:17.174Z,95433.34
2022-11-18T15:06:43.777Z,95448.78
2022-11-18T15:09:11.583Z,95442.53
2022-11-18T15:11:37.978Z,95443.09
2022-11-18T15:14:04.370Z,95456.75
2022-11-18T15:16:32.512Z,95453.31
2022-11-18T15:19:00.728Z,95449.47
2022-11-18T15:21:28.153Z,95467.22
2022-11-18T15:23:54.736Z,95462.31
2022-11-18T15:26:40.795Z,95464.97
2022-11-18T15:29:07.571Z,95470.34
2022-11-18T15:31:35.967Z,95472.41
2022-11-18T15:34:06.728Z,95479.06
2022-11-18T15:36:33.451Z,95484.09
2022-11-18T15:38:59.812Z,95489.69
2022-11-18T15:41:27.930Z,95484.19
2022-11-18T15:43:55.006Z,95497.13
2022-11-18T15:46:22.529Z,95491.84
2022-11-18T15:48:51.548Z,95494.63
2022-11-18T15:51:18.143Z,95500.44
2022-11-18T15:53:44.484Z,95499.25
2022-11-18T15:56:24.060Z,95503.63
2022-11-18T15:59:02.563Z,95502.19
2022-11-18T16:01:31.192Z,95506.16
2022-11-18T16:03:57.741Z,95501.44
2022-11-18T16:06:24.220Z,95501.38
2022-11-18T16:08:55.825Z,95499.75
2022-11-18T16:11:43.856Z,95492.91
2022-11-18T16:14:11.702Z,95504.09
2022-11-18T16:16:38.986Z,95514.56
2022-11-18T16:19:07.804Z,95514.38
2022-11-18T16:21:36.455Z,95521.84
2022-11-18T16:24:04.095Z,95518.81
2022-11-18T16:26:33.547Z,95527.09
2022-11-18T16:29:00.075Z,95525.91
2022-11-18T16:31:41.654Z,95528.09
2022-11-18T16:34:09.266Z,95533.13
2022-11-18T16:36:36.419Z,95533.84
2022-11-18T16:39:10.422Z,95536.16
2022-11-18T16:41:37.507Z,95539.22
2022-11-18T16:44:06.573Z,95550.44
2022-11-18T16:46:36.434Z,95553.59
2022-11-18T16:49:05.733Z,95563.06
2022-11-18T16:51:34.159Z,95559.69
2022-11-18T16:54:05.979Z,95551.16
2022-11-18T16:56:36.059Z,95564.44
2022-11-18T16:59:07.605Z,95571.22
2022-11-18T17:01:34.194Z,95574.50
2022-11-18T17:04:01.655Z,95582.09
2022-11-18T17:06:29.541Z,95576.84
2022-11-18T17:08:56.151Z,95588.50
2022-11-18T17:11:22.594Z,95582.50
2022-11-18T17:13:54.810Z,95589.75
2022-11-18T17:16:24.747Z,95590.84
2022-11-18T17:18:56.132Z,95589.75
2022-11-18T17:21:22.625Z,95593.53
2022-11-18T17:23:49.395Z,95587.97
2022-11-18T17:26:18.299Z,95600.50
2022-11-18T17:28:44.602Z,95593.78
2022-11-18T17:31:12.117Z,95605.06
2022-11-18T17:33:38.447Z,95606.91
2022-11-18T17:36:06.227Z,95612.13
2022-11-18T17:38:34.715Z,95615.13
2022-11-18T17:41:01.256Z,95610.53
2022-11-18T17:43:29.660Z,95614.97
2022-11-18T17:45:57.106Z,95613.00
2022-11-18T17:48:24.241Z,95619.50
2022-11-18T17:50:50.932Z,95623.63
2022-11-18T17:53:17.785Z,95618.06
2022-11-18T17:55:44.174Z,95625.31
2022-11-18T17:58:10.695Z,95633.00
2022-11-18T18:00:40.140Z,95638.22
2022-11-18T18:03:07.597Z,95639.03
2022-11-18T18:05:38.027Z,95639.75
2022-11-18T18:08:09.877Z,95647.22
2022-11-18T18:10:38.308Z,95643.59
2022-11-18T18:13:23.408Z,95649.19
2022-11-18T18:15:58.526Z,95653.16
2022-11-18T18:18:25.947Z,95657.47
2022-11-18T18:20:52.280Z,95657.84
2022-11-18T18:23:19.220Z,95660.84
2022-11-18T18:25:45.620Z,95659.13
2022-11-18T18:28:19.151Z,95661.69
2022-11-18T18:30:48.273Z,95659.44
2022-11-18T18:33:14.604Z,95663.84
2022-11-18T18:35:41.863Z,95661.56
2022-11-18T18:38:08.991Z,95669.53
2022-11-18T18:40:35.352Z,95670.00
2022-11-18T18:43:01.731Z,95676.09
2022-11-18T18:45:50.966Z,95679.28
2022-11-18T18:48:17.415Z,95680.56
2022-11-18T18:50:43.834Z,95679.78
2022-11-18T18:53:10.191Z,95679.50
2022-11-18T18:55:44.702Z,95683.75
2022-11-18T18:58:11.517Z,95687.16
2022-11-18T19:00:38.162Z,95683.28
2022-11-18T19:03:04.557Z,95689.50
2022-11-18T19:06:00.856Z,95692.09
2022-11-18T19:08:19.385Z,95695.22
2022-11-18T19:10:45.741Z,95698.66
2022-11-18T19:13:12.397Z,95698.00
2022-11-18T19:15:38.983Z,95707.84
2022-11-18T19:18:05.436Z,95706.00
2022-11-18T19:20:36.395Z,95713.41
2022-11-18T19:23:09.738Z,95719.13
2022-11-18T19:25:37.689Z,95721.34
2022-11-18T19:28:04.251Z,95722.66
2022-11-18T19:30:30.592Z,95727.88
2022-11-18T19:32:58.842Z,95735.41
2022-11-18T19:35:25.768Z,95738.34
2022-11-18T19:37:52.145Z,95757.25
2022-11-18T19:40:18.633Z,95751.56
2022-11-18T19:42:45.078Z,95755.13
2022-11-18T19:45:11.988Z,95752.78
2022-11-18T19:47:38.533Z,95764.22
2022-11-18T19:50:06.219Z,95775.16
2022-11-18T19:52:33.601Z,95769.81
2022-11-18T19:54:59.930Z,95771.13
2022-11-18T19:57:26.287Z,95780.22
2022-11-18T19:59:53.707Z,95787.72
2022-11-18T20:02:26.146Z,95795.88
2022-11-18T20:05:11.922Z,95793.69
2022-11-18T20:07:38.586Z,95793.69
2022-11-18T20:10:06.625Z,95803.16
2022-11-18T20:12:33.978Z,95793.03
2022-11-18T20:15:00.622Z,95806.56
2022-11-18T20:17:27.942Z,95806.53
2022-11-18T20:19:54.309Z,95815.78
2022-11-18T20:22:20.626Z,95809.59
2022-11-18T20:24:46.976Z,95812.00
2022-11-18T20:27:15.952Z,95820.44
2022-11-18T20:29:42.319Z,95822.41
2022-11-18T20:32:08.695Z,95824.50
2022-11-18T20:34:35.173Z,95823.75
2022-11-18T20:37:03.536Z,95828.25
2022-11-18T20:39:30.017Z,95832.09
2022-11-18T20:42:14.931Z,95835.66
2022-11-18T20:44:42.260Z,95841.00
2022-11-18T20:47:08.605Z,95832.69
2022-11-18T20:49:35.203Z,95837.69
2022-11-18T20:52:01.581Z,95840.28
2022-11-18T20:54:27.932Z,95844.47
2022-11-18T20:56:54.246Z,95847.06
2022-11-18T20:59:20.720Z,95845.28
2022-11-18T21:01:47.374Z,95840.00
2022-11-18T21:04:13.728Z,95848.50
2022-11-18T21:06:40.267Z,95853.06
2022-11-18T21:09:06.842Z,95842.38
2022-11-18T21:11:33.891Z,95852.72
2022-11-18T21:14:23.786Z,95857.22
2022-11-18T21:17:07.174Z,95857.00
2022-11-18T21:19:33.871Z,95863.81
2022-11-18T21:22:01.390Z,95870.78
2022-11-18T21:24:38.843Z,95869.38
2022-11-18T21:27:05.184Z,95869.56
2022-11-18T21:29:32.542Z,95879.47
2022-11-18T21:32:02.514Z,95881.47
2022-11-18T21:34:29.264Z,95887.09
2022-11-18T21:36:58.827Z,95886.72
2022-11-18T21:39:25.327Z,95890.22
2022-11-18T21:41:57.698Z,95894.50
2022-11-18T21:44:25.660Z,95893.84
2022-11-18T21:46:52.173Z,95896.63
2022-11-18T21:49:18.819Z,95894.81
2022-11-18T21:51:45.491Z,95895.03
2022-11-18T21:54:12.873Z,95892.63
2022-11-18T21:56:39.191Z,95893.59
2022-11-18T21:59:07.473Z,95898.81
2022-11-18T22:01:33.819Z,95900.31
2022-11-18T22:04:01.444Z,95901.13
2022-11-18T22:06:30.042Z,95900.59
2022-11-18T22:09:00.309Z,95900.59
2022-11-18T22:11:26.882Z,95909.22
2022-11-18T22:13:53.331Z,95904.72
2022-11-18T22:16:22.183Z,95909.81
2022-11-18T22:18:56.081Z,95909.59
2022-11-18T22:21:52.793Z,95912.38
2022-11-18T22:24:19.418Z,95911.03
2022-11-18T22:26:45.722Z,95910.47
2022-11-18T22:29:12.051Z,95909.22
2022-11-18T22:31:38.360Z,95905.13
2022-11-18T22:37:32.785Z,95916.50
2022-11-18T22:39:59.119Z,95930.75
2022-11-18T22:43:03.793Z,95935.25
2022-11-18T22:45:54.458Z,95944.13
2022-11-18T22:48:20.775Z,95936.84
2022-11-18T22:54:37.641Z,95947.94
2022-11-18T22:57:10.368Z,95944.66
2022-11-18T22:59:36.770Z,95939.28
2022-11-18T23:02:03.182Z,95942.91
2022-11-18T23:04:29.572Z,95943.47
2022-11-18T23:06:56.024Z,95941.41
2022-11-18T23:09:22.528Z,95947.72
2022-11-18T23:12:07.705Z,95949.31
2022-11-18T23:14:34.020Z,95949.03
2022-11-18T23:17:00.395Z,95947.78
2022-11-18T23:19:26.911Z,95962.97
2022-11-18T23:21:53.270Z,95966.28
2022-11-18T23:24:19.777Z,95967.34
2022-11-18T23:26:47.248Z,95974.44
2022-11-18T23:29:14.060Z,95976.66
2022-11-18T23:31:42.811Z,95983.59
2022-11-18T23:34:10.605Z,95983.72
2022-11-18T23:36:37.111Z,95993.31
2022-11-18T23:39:06.022Z,95999.84
2022-11-18T23:41:32.518Z,95999.84
2022-11-18T23:44:38.406Z,96001.16
2022-11-18T23:47:04.816Z,95998.31
2022-11-18T23:49:31.146Z,96001.84
2022-11-18T23:51:57.518Z,95989.16
2022-11-18T23:54:23.830Z,96001.00
2022-11-18T23:56:50.163Z,95997.06
2022-11-18T23:59:16.688Z,96004.00
